Time;durP1;ratioP1;P1;durP2;ratioP2;P2;SDS_P1;SDS_P2;PMS_P1;PMS_P2;Temp;Humidity;BMP_temperature;BMP_pressure;BME280_temperature;BME280_humidity;BME280_pressure;Samples;Min_cycle;Max_cycle;Signal;HPM_P1;HPM_P2
2022/12/10 00:01:29;;;;;;;50.35;18.70;;;-1.80;99.90;;;;;;5030052;28;20060;-75
2022/12/10 00:03:54;;;;;;;49.45;18.45;;;-1.80;99.90;;;;;;5029454;28;20107;-75
2022/12/10 00:06:23;;;;;;;52.17;17.83;;;-1.80;99.90;;;;;;5013645;28;20033;-75
2022/12/10 00:08:50;;;;;;;49.53;18.95;;;-1.80;99.90;;;;;;5029409;28;20120;-75
2022/12/10 00:11:17;;;;;;;53.22;19.30;;;-0.60;99.90;;;;;;5030092;28;20397;-75
2022/12/10 00:13:44;;;;;;;56.92;18.70;;;-0.10;99.90;;;;;;5029482;28;20044;-75
2022/12/10 00:16:13;;;;;;;53.20;18.85;;;-1.90;99.90;;;;;;5029781;28;20042;-75
2022/12/10 00:18:39;;;;;;;51.88;18.75;;;-1.90;99.90;;;;;;5046308;28;20037;-75
2022/12/10 00:21:06;;;;;;;50.13;17.83;;;-1.90;99.90;;;;;;5029304;28;20026;-75
2022/12/10 00:23:32;;;;;;;54.60;19.08;;;-1.80;99.90;;;;;;5029607;28;20045;-76
2022/12/10 00:26:08;;;;;;;52.35;18.67;;;-1.80;99.90;;;;;;5046111;28;20033;-75
2022/12/10 00:28:34;;;;;;;49.30;17.08;;;-0.90;99.90;;;;;;5046282;28;20123;-75
2022/12/10 00:31:18;;;;;;;51.83;18.42;;;-1.90;99.90;;;;;;5029293;28;20045;-75
2022/12/10 00:33:45;;;;;;;49.58;18.77;;;-1.90;99.90;;;;;;5029062;28;20462;-75
2022/12/10 00:36:14;;;;;;;53.78;18.08;;;-1.90;99.90;;;;;;5045593;28;20042;-75
2022/12/10 00:38:41;;;;;;;55.17;19.20;;;-1.90;99.90;;;;;;5029484;28;20041;-74
2022/12/10 00:41:07;;;;;;;57.40;18.77;;;-1.90;99.90;;;;;;5029230;28;20043;-75
2022/12/10 00:43:34;;;;;;;56.72;19.60;;;-1.90;99.90;;;;;;5012746;28;20107;-75
2022/12/10 00:46:00;;;;;;;55.80;19.33;;;-1.90;99.90;;;;;;5028791;28;20060;-75
2022/12/10 00:48:26;;;;;;;52.92;20.17;;;-1.90;99.90;;;;;;5045744;28;20041;-75
2022/12/10 00:51:01;;;;;;;57.72;20.33;;;-1.90;99.90;;;;;;5028764;28;20148;-75
2022/12/10 00:53:29;;;;;;;57.78;19.92;;;-1.90;99.90;;;;;;5029509;28;20125;-75
2022/12/10 00:55:55;;;;;;;49.88;16.42;;;-1.70;99.90;;;;;;5012338;28;20539;-75
2022/12/10 00:58:21;;;;;;;53.10;19.42;;;-1.90;99.90;;;;;;5029174;28;20382;-75
2022/12/10 01:00:48;;;;;;;53.15;19.13;;;-2.00;99.90;;;;;;5028506;28;20037;-76
2022/12/10 01:03:14;;;;;;;55.20;19.17;;;-1.90;99.90;;;;;;5029017;28;20497;-75
2022/12/10 01:05:40;;;;;;;62.38;20.73;;;-2.00;99.90;;;;;;5012495;28;20033;-75
2022/12/10 01:08:06;;;;;;;59.20;20.52;;;-2.00;99.90;;;;;;5045284;28;20616;-76
2022/12/10 01:10:32;;;;;;;58.22;20.55;;;-1.60;99.90;;;;;;5028614;28;20038;-76
2022/12/10 01:12:57;;;;;;;59.80;21.55;;;-2.10;99.90;;;;;;5028311;28;20108;-75
2022/12/10 01:15:23;;;;;;;62.17;20.85;;;-1.30;99.90;;;;;;5028118;28;20033;-75
2022/12/10 01:17:49;;;;;;;67.43;21.85;;;-2.10;99.90;;;;;;5011826;28;20071;-75
2022/12/10 01:20:14;;;;;;;61.42;21.38;;;-2.10;99.90;;;;;;5028648;28;20385;-75
2022/12/10 01:22:40;;;;;;;57.95;19.83;;;-2.10;99.90;;;;;;5045476;28;20041;-76
2022/12/10 01:25:06;;;;;;;59.70;20.63;;;-2.10;99.90;;;;;;5045047;28;20049;-75
2022/12/10 01:27:32;;;;;;;;;;;-2.20;99.90;;;;;;5028996;28;20076;-75
2022/12/10 01:29:58;;;;;;;58.85;20.45;;;-2.20;99.90;;;;;;5027932;28;20034;-76
2022/12/10 01:32:23;;;;;;;62.03;19.42;;;-2.20;99.90;;;;;;5044711;28;20037;-76
2022/12/10 01:34:49;;;;;;;60.03;20.83;;;-2.20;99.90;;;;;;5028096;28;20128;-75
2022/12/10 01:37:15;;;;;;;68.20;20.40;;;-1.70;99.90;;;;;;5028468;28;20465;-75
2022/12/10 01:39:41;;;;;;;57.15;21.63;;;-2.20;99.90;;;;;;5028587;28;20280;-76
2022/12/10 01:42:12;;;;;;;69.13;22.83;;;-2.30;99.90;;;;;;5027945;28;20034;-75
2022/12/10 01:44:41;;;;;;;65.38;22.08;;;-2.30;99.90;;;;;;5024203;28;20067;-75
2022/12/10 01:47:07;;;;;;;62.50;21.50;;;-1.10;99.90;;;;;;5044356;28;20041;-75
2022/12/10 01:49:38;;;;;;;58.97;22.25;;;-2.30;99.90;;;;;;5028082;28;20091;-75
2022/12/10 01:52:07;;;;;;;65.68;21.75;;;-2.30;99.90;;;;;;5009295;28;20127;-75
2022/12/10 01:54:35;;;;;;;69.30;21.52;;;-2.30;99.90;;;;;;5028113;28;20442;-75
2022/12/10 01:57:04;;;;;;;61.58;21.55;;;-2.30;99.90;;;;;;5027712;28;20456;-75
2022/12/10 01:59:32;;;;;;;59.85;21.05;;;-2.30;99.90;;;;;;5027841;28;20037;-75
2022/12/10 02:02:12;;;;;;;66.05;21.77;;;-2.30;99.90;;;;;;5027559;28;20457;-75
2022/12/10 02:04:44;;;;;;;62.13;21.50;;;-2.30;99.90;;;;;;5027875;28;20048;-75
2022/12/10 02:07:24;;;;;;;64.78;22.63;;;-2.30;99.90;;;;;;5044218;28;20040;-75
2022/12/10 02:10:01;;;;;;;63.28;21.85;;;-2.30;99.90;;;;;;5028198;28;20402;-75
2022/12/10 02:12:43;;;;;;;63.08;21.33;;;-2.30;99.90;;;;;;5028012;28;21086;-75
2022/12/10 02:15:17;;;;;;;57.78;18.40;;;-2.30;99.90;;;;;;5027160;28;20061;-76
2022/12/10 02:18:04;;;;;;;59.22;20.73;;;-2.30;99.90;;;;;;5027845;28;20079;-75
2022/12/10 02:20:36;;;;;;;66.43;23.67;;;-2.30;99.90;;;;;;5027860;28;20029;-75
2022/12/10 02:23:12;;;;;;;64.93;20.40;;;-1.80;99.90;;;;;;5027427;28;20033;-76
2022/12/10 02:25:43;;;;;;;67.77;21.73;;;-0.90;99.90;;;;;;5028636;28;20405;-75
2022/12/10 02:28:30;;;;;;;65.13;21.63;;;-2.20;99.90;;;;;;5031611;28;20381;-74
2022/12/10 02:30:56;;;;;;;58.33;20.48;;;-2.20;99.90;;;;;;5031405;28;20057;-76
2022/12/10 02:33:24;;;;;;;69.10;23.20;;;-2.10;99.90;;;;;;5031801;28;20087;-75
2022/12/10 02:35:51;;;;;;;62.10;21.23;;;-2.10;99.90;;;;;;5031581;28;20125;-75
2022/12/10 02:38:27;;;;;;;75.45;24.30;;;-2.10;99.90;;;;;;5014817;28;20041;-75
2022/12/10 02:40:58;;;;;;;66.13;21.45;;;-2.10;99.90;;;;;;5031704;28;20096;-76
2022/12/10 02:43:25;;;;;;;70.13;23.65;;;-2.10;99.90;;;;;;5031504;28;20050;-75
2022/12/10 02:45:51;;;;;;;66.47;24.45;;;-2.20;99.90;;;;;;5031577;28;20091;-75
2022/12/10 02:48:18;;;;;;;63.03;22.92;;;-2.20;99.90;;;;;;5031230;28;20397;-75
2022/12/10 02:50:44;;;;;;;63.30;21.63;;;-2.10;99.90;;;;;;5031494;28;20041;-75
2022/12/10 02:53:10;;;;;;;67.75;23.17;;;-2.20;99.90;;;;;;4998070;28;20042;-76
2022/12/10 02:56:01;;;;;;;75.05;24.70;;;-2.20;99.90;;;;;;5031276;28;20041;-76
2022/12/10 02:58:49;;;;;;;64.90;22.92;;;-2.20;99.90;;;;;;5031589;28;20444;-76
2022/12/10 03:01:23;;;;;;;67.47;23.23;;;-2.20;99.90;;;;;;5014592;28;20038;-75
2022/12/10 03:04:23;;;;;;;73.72;24.67;;;-2.20;99.90;;;;;;5031221;28;20042;-76
2022/12/10 03:06:57;;;;;;;71.40;23.83;;;-2.20;99.90;;;;;;4992494;28;20053;-75
2022/12/10 03:09:32;;;;;;;68.32;22.30;;;-2.20;99.90;;;;;;5030646;28;20096;-75
2022/12/10 03:12:18;;;;;;;71.40;22.90;;;-2.20;99.90;;;;;;5029253;28;20037;-75
2022/12/10 03:14:45;;;;;;;61.30;19.65;;;-2.20;99.90;;;;;;5031158;28;20608;-74
2022/12/10 03:17:12;;;;;;;72.07;23.42;;;-2.30;99.90;;;;;;5014171;28;20036;-75
2022/12/10 03:19:45;;;;;;;70.90;24.15;;;-2.30;99.90;;;;;;5047254;28;20041;-74
2022/12/10 03:22:12;;;;;;;77.22;25.02;;;-2.30;99.90;;;;;;5030789;28;20034;-74
2022/12/10 03:24:40;;;;;;;73.18;24.95;;;-2.30;99.90;;;;;;5030709;28;20095;-73
2022/12/10 03:27:08;;;;;;;66.45;24.20;;;-2.30;99.90;;;;;;5030305;28;20044;-75
2022/12/10 03:29:42;;;;;;;65.13;24.15;;;-2.30;99.90;;;;;;5030551;28;20139;-75
2022/12/10 03:32:08;;;;;;;66.22;22.73;;;-2.00;99.90;;;;;;5030437;28;20473;-75
2022/12/10 03:34:35;;;;;;;75.28;25.08;;;-2.30;99.90;;;;;;5030803;28;20037;-75
2022/12/10 03:37:02;;;;;;;71.80;23.05;;;-2.40;99.90;;;;;;5030481;28;20481;-75
2022/12/10 03:39:28;;;;;;;70.50;22.95;;;-2.50;99.90;;;;;;5030320;28;20041;-75
2022/12/10 03:41:54;;;;;;;66.22;22.77;;;-2.40;99.90;;;;;;5047131;28;20040;-75
2022/12/10 03:44:31;;;;;;;73.05;25.02;;;-2.50;99.90;;;;;;5013618;28;20029;-75
2022/12/10 03:46:56;;;;;;;;;;;-2.50;99.90;;;;;;5028607;28;20048;-75
2022/12/10 03:49:23;;;;;;;73.38;23.67;;;-2.50;99.90;;;;;;5030077;28;20365;-75
2022/12/10 03:51:48;;;;;;;64.72;22.52;;;-2.60;99.90;;;;;;5030646;28;20394;-75
2022/12/10 03:54:14;;;;;;;65.13;22.50;;;-2.50;99.90;;;;;;5013742;28;20048;-76
2022/12/10 03:56:40;;;;;;;81.28;25.90;;;-2.60;99.90;;;;;;5030274;28;20037;-76
2022/12/10 03:59:05;;;;;;;69.80;23.33;;;-2.50;99.90;;;;;;5027408;28;20498;-75
2022/12/10 04:01:31;;;;;;;77.53;24.88;;;-2.50;99.90;;;;;;5030077;28;20041;-75
2022/12/10 04:03:57;;;;;;;68.90;23.83;;;-2.50;99.90;;;;;;5013765;28;20096;-76
2022/12/10 04:06:23;;;;;;;73.80;24.75;;;-2.50;99.90;;;;;;5027448;28;20128;-76
2022/12/10 04:08:48;;;;;;;76.95;25.73;;;-2.50;99.90;;;;;;5030485;28;20045;-76
2022/12/10 04:11:15;;;;;;;78.47;25.17;;;-2.50;99.90;;;;;;5013236;28;20573;-76
2022/12/10 04:16:27;;;;;;;82.00;25.00;;;-1.60;99.90;;;;;;5028214;28;20072;-76
2022/12/10 04:19:07;;;;;;;72.22;24.70;;;-0.60;99.90;;;;;;5013687;28;20045;-76
2022/12/10 04:27:11;;;;;;;76.95;24.95;;;-2.50;99.90;;;;;;5029734;28;20295;-76
2022/12/10 04:29:37;;;;;;;84.45;25.98;;;-2.50;99.90;;;;;;5029232;28;20107;-75
2022/12/10 04:32:03;;;;;;;77.85;25.15;;;-2.50;99.90;;;;;;5013155;28;20045;-75
2022/12/10 04:34:29;;;;;;;72.95;24.75;;;-2.50;99.90;;;;;;5045935;28;20048;-75
2022/12/10 04:36:56;;;;;;;76.82;24.85;;;-2.50;99.90;;;;;;5046029;28;20030;-75
2022/12/10 04:39:22;;;;;;;77.00;24.48;;;-2.50;99.90;;;;;;5029451;28;20405;-76
2022/12/10 04:41:49;;;;;;;76.93;25.55;;;-2.50;99.90;;;;;;5029742;28;20033;-76
2022/12/10 04:44:15;;;;;;;76.45;23.60;;;-0.80;99.90;;;;;;5012397;28;20041;-75
2022/12/10 04:46:41;;;;;;;77.93;26.10;;;-2.60;99.90;;;;;;5029361;28;20060;-75
2022/12/10 04:49:07;;;;;;;77.93;25.17;;;-2.00;99.90;;;;;;5028662;28;20029;-76
2022/12/10 04:51:32;;;;;;;76.88;26.40;;;-2.60;99.90;;;;;;5028868;28;20531;-76
2022/12/10 04:53:58;;;;;;;74.45;23.77;;;-2.60;99.90;;;;;;4996443;28;20037;-76
2022/12/10 04:56:24;;;;;;;72.30;24.95;;;-2.10;99.90;;;;;;5028401;28;20041;-76
2022/12/10 04:58:50;;;;;;;81.95;26.08;;;-2.60;99.90;;;;;;5013018;28;20099;-76
2022/12/10 05:01:17;;;;;;;75.60;26.00;;;-2.60;99.90;;;;;;5012229;28;20045;-76
2022/12/10 05:03:44;;;;;;;80.78;24.65;;;-2.50;99.90;;;;;;5029167;28;20053;-76
2022/12/10 05:06:12;;;;;;;79.05;27.40;;;-2.40;99.90;;;;;;5029334;28;20480;-76
2022/12/10 05:08:39;;;;;;;80.00;26.25;;;-2.40;99.90;;;;;;5012372;28;20116;-76
2022/12/10 05:11:08;;;;;;;90.85;26.90;;;-2.30;99.90;;;;;;5028802;28;20397;-76
2022/12/10 05:13:34;;;;;;;81.10;24.52;;;-2.20;99.90;;;;;;5028650;28;20034;-75
2022/12/10 05:16:04;;;;;;;79.13;26.90;;;-2.20;99.90;;;;;;5012555;28;20389;-75
2022/12/10 05:18:31;;;;;;;79.45;26.55;;;-2.10;99.90;;;;;;5024242;28;20041;-75
2022/12/10 05:21:04;;;;;;;77.07;25.48;;;-2.10;99.90;;;;;;5012411;28;20163;-76
2022/12/10 05:23:30;;;;;;;73.70;25.08;;;-2.00;99.90;;;;;;5011419;28;20048;-76
2022/12/10 05:26:08;;;;;;;82.65;26.90;;;-2.00;99.90;;;;;;5011972;28;20045;-76
2022/12/10 05:28:40;;;;;;;81.90;24.88;;;-1.90;99.90;;;;;;5028100;28;20064;-76
2022/12/10 05:31:15;;;;;;;88.07;25.75;;;-1.80;99.90;;;;;;5028685;28;20045;-75
2022/12/10 05:33:41;;;;;;;95.30;31.00;;;-1.40;99.90;;;;;;5028734;28;20056;-76
2022/12/10 05:36:07;;;;;;;113.60;30.20;;;-1.70;99.90;;;;;;5011779;28;20041;-75
2022/12/10 05:38:34;;;;;;;90.78;27.08;;;-1.70;99.90;;;;;;5011524;28;20045;-76
2022/12/10 05:41:04;;;;;;;96.00;27.13;;;-1.70;99.90;;;;;;5028151;28;20654;-76
2022/12/10 05:43:30;;;;;;;112.07;29.85;;;-1.60;99.90;;;;;;5027772;28;20394;-76
2022/12/10 05:46:01;;;;;;;113.43;31.38;;;-1.60;99.90;;;;;;5028340;28;20439;-75
2022/12/10 05:48:27;;;;;;;105.35;27.77;;;-1.60;99.90;;;;;;5011469;28;20040;-75
2022/12/10 05:50:52;;;;;;;95.57;27.48;;;-1.50;99.90;;;;;;5025922;28;20040;-76
2022/12/10 05:53:18;;;;;;;113.13;28.95;;;-1.50;99.90;;;;;;5011279;28;20477;-76
2022/12/10 05:55:44;;;;;;;114.22;27.40;;;-1.50;99.90;;;;;;5044504;28;20505;-75
2022/12/10 05:58:10;;;;;;;88.45;26.38;;;-1.50;99.90;;;;;;5011346;28;20405;-76
2022/12/10 06:00:38;;;;;;;102.38;27.58;;;-1.50;99.90;;;;;;5043988;28;20034;-75
2022/12/10 06:03:04;;;;;;;115.35;27.25;;;-1.40;99.90;;;;;;5011391;28;20030;-75
2022/12/10 06:05:35;;;;;;;137.98;32.42;;;-1.50;99.90;;;;;;5010993;28;20045;-75
2022/12/10 06:08:01;;;;;;;138.13;31.30;;;-1.40;99.90;;;;;;5028188;28;20409;-75
2022/12/10 06:10:26;;;;;;;127.18;29.65;;;-0.30;99.90;;;;;;5011144;28;20037;-75
2022/12/10 06:12:52;;;;;;;176.40;33.97;;;-1.50;99.90;;;;;;5028133;28;20037;-75
2022/12/10 06:15:18;;;;;;;120.28;28.98;;;-1.40;99.90;;;;;;5044220;28;20083;-75
2022/12/10 06:17:43;;;;;;;108.68;28.33;;;-1.40;99.90;;;;;;5043738;28;20132;-76
2022/12/10 06:20:10;;;;;;;169.77;29.88;;;-1.40;99.90;;;;;;5027905;28;20507;-75
2022/12/10 06:22:36;;;;;;;158.05;32.25;;;-1.40;99.90;;;;;;5011106;28;20355;-75
2022/12/10 06:25:01;;;;;;;192.13;33.50;;;-1.40;99.90;;;;;;5028033;28;20053;-75
2022/12/10 06:27:30;;;;;;;151.13;27.58;;;-1.50;99.90;;;;;;5027326;28;20098;-75
2022/12/10 06:29:55;;;;;;;169.73;29.75;;;-1.40;99.90;;;;;;5027743;28;20140;-76
2022/12/10 06:32:21;;;;;;;220.45;37.58;;;-1.40;99.90;;;;;;5044039;28;20103;-75
2022/12/10 06:34:47;;;;;;;222.85;33.88;;;-1.50;99.90;;;;;;5027579;28;20041;-75
2022/12/10 06:37:12;;;;;;;153.07;33.37;;;-1.50;99.90;;;;;;5027977;28;20048;-75
2022/12/10 06:39:41;;;;;;;197.00;33.28;;;0.00;99.90;;;;;;5027210;28;20801;-75
2022/12/10 06:42:08;;;;;;;172.77;30.20;;;-1.50;99.90;;;;;;5027403;28;20039;-75
2022/12/10 06:44:34;;;;;;;217.18;35.78;;;-1.50;99.90;;;;;;5026981;28;20052;-75
2022/12/10 06:46:59;;;;;;;241.90;32.33;;;-1.50;99.90;;;;;;5044020;28;20128;-75
2022/12/10 06:49:25;;;;;;;234.40;33.83;;;-1.40;99.90;;;;;;5027266;28;20037;-75
2022/12/10 06:51:51;;;;;;;187.57;28.87;;;-1.60;99.90;;;;;;5044186;28;20500;-74
2022/12/10 06:54:16;;;;;;;221.98;34.35;;;-1.50;99.90;;;;;;5010698;28;20284;-75
2022/12/10 06:56:42;;;;;;;198.15;31.65;;;-1.50;99.90;;;;;;5027012;28;20057;-76
2022/12/10 06:59:08;;;;;;;282.63;40.08;;;-1.50;99.90;;;;;;5027404;28;20485;-76
2022/12/10 07:01:33;;;;;;;143.57;26.42;;;-1.50;99.90;;;;;;5027161;28;20034;-76
2022/12/10 07:03:59;;;;;;;253.68;32.40;;;-1.50;99.90;;;;;;5027298;28;20037;-76
2022/12/10 07:06:27;;;;;;;167.15;27.58;;;-1.60;99.90;;;;;;5043767;28;20041;-76
2022/12/10 07:08:54;;;;;;;228.25;30.42;;;-1.60;99.90;;;;;;5027445;28;20041;-76
2022/12/10 07:11:22;;;;;;;247.10;35.13;;;-1.60;99.90;;;;;;5010733;28;20044;-76
2022/12/10 07:13:48;;;;;;;241.82;33.33;;;-1.60;99.90;;;;;;5014068;28;20044;-76
2022/12/10 07:16:17;;;;;;;127.85;24.13;;;-1.60;99.90;;;;;;5030922;28;20037;-76
2022/12/10 07:18:44;;;;;;;284.88;34.20;;;-1.60;99.90;;;;;;5013951;28;20102;-76
2022/12/10 07:21:21;;;;;;;225.00;33.90;;;-1.40;99.90;;;;;;5014444;28;20128;-76
2022/12/10 07:23:47;;;;;;;157.75;26.77;;;-1.70;99.90;;;;;;5014251;28;20045;-76
2022/12/10 07:26:13;;;;;;;;;;;-0.90;99.90;;;;;;5014589;28;20041;-76
2022/12/10 07:28:39;;;;;;;262.75;34.33;;;-1.80;99.90;;;;;;5030049;28;19917;-76
2022/12/10 07:31:07;;;;;;;276.08;35.03;;;-1.80;99.90;;;;;;5030810;28;20132;-76
2022/12/10 07:33:33;;;;;;;236.57;30.65;;;-1.80;99.90;;;;;;5013822;28;20125;-76
2022/12/10 07:35:59;;;;;;;;;;;-1.80;99.90;;;;;;5031012;28;20063;-74
2022/12/10 07:38:25;;;;;;;282.38;36.70;;;-1.80;99.90;;;;;;5030459;28;20003;-76
2022/12/10 07:40:51;;;;;;;204.57;29.52;;;-0.90;99.90;;;;;;5013596;28;20064;-75
2022/12/10 07:43:17;;;;;;;185.38;32.30;;;-1.60;99.90;;;;;;5047398;28;20482;-76
2022/12/10 07:45:43;;;;;;;236.00;32.10;;;-1.90;99.90;;;;;;5013255;28;20038;-76
2022/12/10 07:48:09;;;;;;;198.15;28.38;;;-1.90;99.90;;;;;;5047284;28;20115;-76
2022/12/10 07:50:35;;;;;;;242.43;30.45;;;-1.90;99.90;;;;;;5030108;28;20037;-76
2022/12/10 07:53:01;;;;;;;98.00;20.30;;;-1.80;99.90;;;;;;5030430;28;20041;-76
2022/12/10 07:55:26;;;;;;;233.55;26.98;;;-2.40;99.90;;;;;;5030619;28;20030;-76
2022/12/10 07:57:52;;;;;;;206.47;36.27;;;-1.80;99.90;;;;;;5030288;28;20045;-75
2022/12/10 08:00:18;;;;;;;245.23;34.37;;;-0.10;99.90;;;;;;5030771;28;20288;-75
2022/12/10 08:02:43;;;;;;;414.75;48.58;;;-1.80;99.90;;;;;;5046582;28;20296;-75
2022/12/10 08:05:10;;;;;;;166.00;27.45;;;-1.90;99.90;;;;;;5013836;28;20132;-76
2022/12/10 08:07:36;;;;;;;222.25;31.33;;;-1.80;99.90;;;;;;5029956;28;20045;-75
2022/12/10 08:10:03;;;;;;;204.70;31.17;;;-1.90;99.90;;;;;;5030658;28;20401;-74
2022/12/10 08:12:28;;;;;;;78.43;18.27;;;-1.90;99.90;;;;;;5027410;28;20037;-74
2022/12/10 08:14:54;;;;;;;230.75;31.33;;;-1.90;99.90;;;;;;5046253;28;20029;-74
2022/12/10 08:17:20;;;;;;;151.27;23.20;;;-1.90;99.90;;;;;;5046504;28;20481;-74
2022/12/10 08:19:45;;;;;;;126.20;25.35;;;-1.10;99.90;;;;;;5046130;28;20466;-74
2022/12/10 08:22:11;;;;;;;127.13;22.85;;;-1.90;99.90;;;;;;5046882;28;20083;-74
2022/12/10 08:24:36;;;;;;;148.20;25.50;;;-1.80;99.90;;;;;;5028450;28;20133;-74
2022/12/10 08:27:02;;;;;;;170.60;26.87;;;-1.80;99.90;;;;;;5029972;28;20296;-74
2022/12/10 08:29:28;;;;;;;160.23;27.33;;;-1.00;99.90;;;;;;5029315;28;20299;-73
2022/12/10 08:31:54;;;;;;;144.10;23.25;;;-1.80;99.90;;;;;;5029359;28;20406;-75
2022/12/10 08:34:19;;;;;;;171.23;26.65;;;-1.00;99.90;;;;;;5013073;28;20047;-74
2022/12/10 08:36:46;;;;;;;164.70;25.75;;;-1.80;99.90;;;;;;5029145;28;20436;-75
2022/12/10 08:39:15;;;;;;;144.95;26.17;;;-1.80;99.90;;;;;;5012980;28;20033;-73
2022/12/10 08:41:41;;;;;;;152.73;23.73;;;-1.80;99.90;;;;;;5028986;28;20087;-73
2022/12/10 08:44:07;;;;;;;180.65;31.20;;;-1.80;99.90;;;;;;5029548;28;20065;-73
2022/12/10 08:46:33;;;;;;;159.77;28.02;;;-1.80;99.90;;;;;;5046053;28;20468;-73
2022/12/10 08:48:59;;;;;;;142.52;24.13;;;-1.80;99.90;;;;;;5045548;28;20037;-73
2022/12/10 08:51:25;;;;;;;134.90;26.15;;;-1.70;99.90;;;;;;5045745;28;20091;-72
2022/12/10 08:53:51;;;;;;;126.00;23.83;;;-0.70;99.90;;;;;;5028942;28;20045;-73
2022/12/10 08:56:17;;;;;;;173.38;27.45;;;-1.80;99.90;;;;;;5029044;28;20044;-73
2022/12/10 08:58:43;;;;;;;163.10;24.90;;;-1.80;99.90;;;;;;5045682;28;20045;-72
2022/12/10 09:01:10;;;;;;;108.05;20.92;;;-1.80;99.90;;;;;;5046172;28;20037;-74
2022/12/10 09:03:37;;;;;;;135.82;21.80;;;-1.80;99.90;;;;;;5026610;28;20029;-74
2022/12/10 09:06:03;;;;;;;;;;;-1.80;99.90;;;;;;5004577;28;20114;-75
2022/12/10 09:08:29;;;;;;;97.63;17.47;;;-1.80;99.90;;;;;;5019860;28;19924;-75
2022/12/10 09:10:55;;;;;;;110.53;23.67;;;-1.80;99.90;;;;;;5040719;28;20283;-75
2022/12/10 09:13:20;;;;;;;221.50;29.53;;;-1.80;99.90;;;;;;5012783;28;20276;-75
2022/12/10 09:15:52;;;;;;;133.30;24.70;;;-1.90;99.90;;;;;;5044944;28;20296;-74
2022/12/10 09:18:19;;;;;;;109.47;21.60;;;-1.80;99.90;;;;;;5025531;28;20082;-73
2022/12/10 09:20:44;;;;;;;;;;;-1.80;99.90;;;;;;5012350;28;20037;-74
2022/12/10 09:23:10;;;;;;;84.93;19.85;;;-1.80;99.90;;;;;;5028977;28;19971;-74
2022/12/10 09:25:36;;;;;;;111.03;25.00;;;-1.70;99.90;;;;;;5028836;28;20046;-72
2022/12/10 09:28:01;;;;;;;111.88;23.70;;;-1.70;99.90;;;;;;5028557;28;20037;-74
2022/12/10 09:30:27;;;;;;;105.40;21.90;;;-1.70;99.90;;;;;;5028325;28;20053;-74
2022/12/10 09:32:53;;;;;;;124.47;25.35;;;-1.70;99.90;;;;;;5011822;28;20351;-73
2022/12/10 09:35:19;;;;;;;129.15;26.10;;;-1.70;99.90;;;;;;5044671;28;20056;-78
2022/12/10 09:37:44;;;;;;;183.13;29.50;;;-1.70;99.90;;;;;;5011807;28;20103;-76
2022/12/10 09:40:20;;;;;;;150.23;22.87;;;-1.70;99.90;;;;;;5044855;28;20601;-79
2022/12/10 09:43:14;;;;;;;147.45;24.30;;;-1.70;99.90;;;;;;5028231;28;20291;-75
2022/12/10 09:45:57;;;;;;;163.00;27.13;;;-1.70;99.90;;;;;;4994172;28;20053;-77
2022/12/10 09:48:32;;;;;;;176.57;27.45;;;-1.70;99.90;;;;;;5028505;28;20049;-76
2022/12/10 09:51:10;;;;;;;145.07;26.02;;;-1.60;99.90;;;;;;5028212;28;20053;-75
2022/12/10 09:53:37;;;;;;;115.55;24.25;;;-1.60;99.90;;;;;;5028952;28;20565;-76
2022/12/10 09:56:04;;;;;;;99.63;25.38;;;-1.50;99.90;;;;;;5027747;28;20041;-77
2022/12/10 09:58:30;;;;;;;98.07;24.63;;;-1.50;99.90;;;;;;5045172;28;20072;-76
2022/12/10 10:01:03;;;;;;;88.20;23.10;;;-1.50;99.90;;;;;;5005152;28;20072;-78
2022/12/10 10:03:34;;;;;;;84.78;22.17;;;-1.30;99.90;;;;;;5007415;28;20041;-76
2022/12/10 10:06:02;;;;;;;93.50;23.02;;;-0.40;99.90;;;;;;5016401;28;20060;-76
2022/12/10 10:08:36;;;;;;;83.03;22.00;;;0.10;99.90;;;;;;5034092;28;20046;-75
2022/12/10 10:11:03;;;;;;;74.95;21.38;;;-1.40;99.90;;;;;;5018978;28;20041;-77
2022/12/10 10:13:51;;;;;;;115.75;22.20;;;-0.70;99.90;;;;;;5028432;28;20115;-77
2022/12/10 10:16:35;;;;;;;73.60;18.27;;;-0.70;99.90;;;;;;5026296;28;20045;-77
2022/12/10 10:19:11;;;;;;;60.63;19.67;;;-1.40;99.90;;;;;;5027978;28;20117;-78
2022/12/10 10:21:41;;;;;;;64.77;18.67;;;-1.30;99.90;;;;;;5026247;28;20057;-80
2022/12/10 10:24:14;;;;;;;63.25;18.75;;;-0.60;99.90;;;;;;5044962;28;20033;-83
2022/12/10 10:26:40;;;;;;;49.80;17.75;;;-1.30;99.90;;;;;;5010347;28;20489;-80
2022/12/10 10:29:10;;;;;;;52.47;18.13;;;-1.30;99.90;;;;;;5011332;28;20050;-81
2022/12/10 10:31:40;;;;;;;51.58;17.25;;;-1.30;99.90;;;;;;5028071;28;20197;-82
2022/12/10 10:34:17;;;;;;;69.40;20.95;;;-1.30;99.90;;;;;;5027907;28;20122;-81
2022/12/10 10:36:43;;;;;;;59.65;19.60;;;0.00;99.90;;;;;;5006162;28;20497;-82
2022/12/10 10:39:21;;;;;;;72.55;22.33;;;-1.30;99.90;;;;;;5017214;28;20042;-82
2022/12/10 10:41:53;;;;;;;68.05;20.52;;;-1.30;99.90;;;;;;5011812;28;20486;-80
2022/12/10 10:44:22;;;;;;;46.03;16.98;;;-1.20;99.90;;;;;;5012975;28;20034;-82
2022/12/10 10:46:50;;;;;;;60.85;20.00;;;-1.20;99.90;;;;;;4997812;28;20516;-81
2022/12/10 10:49:31;;;;;;;54.63;18.50;;;-1.10;99.90;;;;;;5021525;28;20033;-81
2022/12/10 10:52:05;;;;;;;43.33;16.15;;;-1.10;99.90;;;;;;5031953;28;20030;-83
2022/12/10 10:54:41;;;;;;;45.60;17.02;;;-1.00;99.90;;;;;;5033018;28;20045;-81
2022/12/10 10:57:23;;;;;;;44.67;16.60;;;-1.00;99.90;;;;;;5033015;28;20587;-82
2022/12/10 10:59:52;;;;;;;48.97;19.30;;;-0.90;99.90;;;;;;5032558;28;20072;-83
2022/12/10 11:02:33;;;;;;;50.20;17.80;;;-0.90;99.90;;;;;;5032001;28;20426;-84
2022/12/10 11:05:06;;;;;;;37.65;14.88;;;-0.60;99.90;;;;;;5030298;28;20140;-83
2022/12/10 11:07:38;;;;;;;45.63;16.85;;;-0.80;99.90;;;;;;5032940;28;20049;-82
2022/12/10 11:10:16;;;;;;;44.20;16.50;;;-0.80;99.90;;;;;;5032293;28;20048;-82
2022/12/10 11:12:41;;;;;;;40.05;16.08;;;-0.80;99.90;;;;;;5031083;28;20390;-83
2022/12/10 11:15:22;;;;;;;44.20;15.43;;;-0.20;99.90;;;;;;5032424;28;20052;-84
2022/12/10 11:17:50;;;;;;;42.92;14.93;;;-0.70;99.90;;;;;;5049914;28;20060;-83
2022/12/10 11:20:21;;;;;;;40.83;15.18;;;-0.70;99.90;;;;;;5034086;28;20033;-83
2022/12/10 11:23:11;;;;;;;44.50;16.90;;;-0.70;99.90;;;;;;5008625;28;20105;-85
2022/12/10 11:25:45;;;;;;;42.65;15.10;;;-0.60;99.90;;;;;;5030216;28;20057;-84
2022/12/10 11:28:34;;;;;;;46.80;16.30;;;-0.70;99.90;;;;;;5033990;28;20041;-84
2022/12/10 11:31:18;;;;;;;45.10;16.95;;;-0.70;99.90;;;;;;5021968;28;20472;-81
2022/12/10 11:33:57;;;;;;;44.55;16.40;;;-0.70;99.90;;;;;;5022877;28;20037;-83
2022/12/10 11:36:44;;;;;;;48.35;18.35;;;-0.70;99.90;;;;;;5031693;28;20052;-80
2022/12/10 11:39:16;;;;;;;47.38;17.58;;;-0.70;99.90;;;;;;5032651;28;20076;-84
2022/12/10 11:41:44;;;;;;;48.05;16.70;;;-0.70;99.90;;;;;;5049083;28;20125;-84
2022/12/10 11:44:21;;;;;;;39.22;14.60;;;-0.70;99.90;;;;;;5027078;28;20038;-82
2022/12/10 11:47:08;;;;;;;42.33;15.70;;;-0.70;99.90;;;;;;5031323;28;20045;-83
2022/12/10 11:50:01;;;;;;;44.97;17.00;;;-0.60;99.90;;;;;;5029511;28;20053;-84
2022/12/10 11:52:48;;;;;;;43.65;17.05;;;-0.60;99.90;;;;;;5026150;28;20490;-84
2022/12/10 11:55:30;;;;;;;46.95;15.82;;;-0.60;99.90;;;;;;5025566;28;20057;-85
2022/12/10 11:58:15;;;;;;;47.00;16.95;;;-0.50;99.90;;;;;;5024031;28;20144;-84
2022/12/10 12:00:55;;;;;;;49.25;17.20;;;-0.50;99.90;;;;;;5026468;28;20128;-85
2022/12/10 12:04:04;;;;;;;48.47;16.45;;;-0.50;99.90;;;;;;5029714;28;20044;-82
2022/12/10 12:06:48;;;;;;;49.60;17.73;;;-0.40;99.90;;;;;;5028112;28;20037;-81
2022/12/10 12:09:16;;;;;;;52.85;18.70;;;0.30;99.90;;;;;;5028036;28;20046;-84
2022/12/10 12:11:51;;;;;;;51.10;17.20;;;-0.40;99.90;;;;;;5041049;28;20056;-82
2022/12/10 12:14:31;;;;;;;58.33;17.67;;;-0.40;99.90;;;;;;5046301;28;20042;-80
2022/12/10 12:17:19;;;;;;;48.45;16.92;;;-0.40;99.90;;;;;;5030665;28;20571;-82
2022/12/10 12:19:59;;;;;;;45.85;16.33;;;-0.40;99.90;;;;;;5018171;28;20038;-83
2022/12/10 12:22:27;;;;;;;51.63;17.48;;;-0.30;99.90;;;;;;5025903;28;20041;-85
2022/12/10 12:25:07;;;;;;;58.42;16.27;;;-0.30;99.90;;;;;;4991532;28;20049;-82
2022/12/10 12:27:41;;;;;;;52.33;16.23;;;-0.30;99.90;;;;;;5018150;28;20048;-83
2022/12/10 12:30:16;;;;;;;57.22;17.95;;;-0.30;99.90;;;;;;5021984;28;20135;-83
2022/12/10 12:32:57;;;;;;;54.22;18.35;;;-0.30;99.90;;;;;;5021893;28;20045;-84
2022/12/10 12:35:47;;;;;;;56.03;18.75;;;-0.30;99.90;;;;;;5039156;28;20033;-81
2022/12/10 12:38:25;;;;;;;63.10;17.33;;;-0.30;99.90;;;;;;5020428;28;20077;-82
2022/12/10 12:41:25;;;;;;;56.47;16.55;;;-0.30;99.90;;;;;;5015805;28;20053;-83
2022/12/10 12:44:00;;;;;;;54.08;16.85;;;-0.20;99.90;;;;;;5005211;28;20041;-80
2022/12/10 12:46:47;;;;;;;59.13;18.95;;;-0.30;99.90;;;;;;5020912;28;20132;-80
2022/12/10 12:49:40;;;;;;;43.95;14.77;;;-0.30;99.90;;;;;;5021315;28;20041;-80